Time;durP1;ratioP1;P1;durP2;ratioP2;P2;SDS_P1;SDS_P2;PMS_P1;PMS_P2;Temp;Humidity;BMP_temperature;BMP_pressure;BME280_temperature;BME280_humidity;BME280_pressure;Samples;Min_cycle;Max_cycle;Signal;HPM_P1;HPM_P2
2022/08/17 00:00:53;;;;;;;5.87;5.27;;;;;;;17.45;100.00;95324.41;5051386;28;24992;-75
2022/08/17 00:03:23;;;;;;;6.70;5.50;;;;;;;17.47;100.00;95319.06;5051684;28;24446;-75
2022/08/17 00:05:52;;;;;;;7.63;5.47;;;;;;;17.52;100.00;95322.84;5050725;28;24438;-74
2022/08/17 00:08:21;;;;;;;6.68;4.97;;;;;;;17.53;100.00;95315.81;5041306;28;24447;-75
2022/08/17 00:10:52;;;;;;;5.97;5.40;;;;;;;17.55;100.00;95319.13;5044594;28;24432;-75
2022/08/17 00:13:24;;;;;;;7.28;5.90;;;;;;;17.59;100.00;95320.47;5050546;28;24451;-75
2022/08/17 00:15:51;;;;;;;6.43;5.53;;;;;;;17.63;100.00;95325.25;5050320;28;24438;-75
2022/08/17 00:18:18;;;;;;;6.40;5.60;;;;;;;17.62;100.00;95325.41;5042417;28;24438;-75
2022/08/17 00:20:45;;;;;;;6.17;5.67;;;;;;;17.67;100.00;95323.97;5050902;28;24529;-75
2022/08/17 00:23:15;;;;;;;8.67;5.37;;;;;;;17.70;100.00;95317.59;5045592;28;24435;-74
2022/08/17 00:25:43;;;;;;;6.93;5.73;;;;;;;17.71;100.00;95314.00;5040014;28;24436;-74
2022/08/17 00:28:13;;;;;;;6.45;5.18;;;;;;;17.73;100.00;95311.25;5043160;28;24434;-75
2022/08/17 00:30:40;;;;;;;6.10;5.50;;;;;;;17.73;100.00;95303.41;5049511;28;24590;-74
2022/08/17 00:33:10;;;;;;;6.28;5.63;;;;;;;17.70;100.00;95307.13;5040999;28;24497;-75
2022/08/17 00:35:37;;;;;;;5.78;5.30;;;;;;;17.69;100.00;95307.25;5046107;28;24450;-75
2022/08/17 00:38:05;;;;;;;7.10;5.63;;;;;;;17.65;100.00;95309.41;5047591;28;25008;-75
2022/08/17 00:40:32;;;;;;;5.63;5.13;;;;;;;17.65;100.00;95312.00;5039035;28;25080;-74
2022/08/17 00:43:12;;;;;;;5.68;5.07;;;;;;;17.60;100.00;95307.19;5042078;28;24446;-75
2022/08/17 00:45:39;;;;;;;5.82;4.65;;;;;;;17.56;100.00;95303.25;5047660;28;24972;-75
2022/08/17 00:48:05;;;;;;;5.68;4.90;;;;;;;17.45;100.00;95298.22;5050613;28;24805;-75
2022/08/17 00:50:32;;;;;;;5.85;4.75;;;;;;;17.27;100.00;95298.22;5039282;28;24480;-75
2022/08/17 00:52:59;;;;;;;9.00;4.90;;;;;;;17.15;100.00;95295.00;5046085;28;24477;-75
2022/08/17 00:55:26;;;;;;;5.00;4.50;;;;;;;17.13;100.00;95291.72;5047196;28;24805;-75
2022/08/17 00:57:57;;;;;;;6.90;4.32;;;;;;;17.12;100.00;95297.09;5048917;28;25342;-75
2022/08/17 01:00:29;;;;;;;6.55;4.88;;;;;;;17.04;100.00;95295.22;5045047;28;24462;-75
2022/08/17 01:03:00;;;;;;;7.22;5.05;;;;;;;17.02;100.00;95297.19;5048162;28;24431;-75
2022/08/17 01:05:29;;;;;;;5.35;4.85;;;;;;;17.00;100.00;95293.88;5050365;28;25002;-75
2022/08/17 01:07:57;;;;;;;5.57;5.07;;;;;;;17.00;100.00;95286.03;5047787;28;24467;-75
2022/08/17 01:10:31;;;;;;;5.30;4.70;;;;;;;16.94;100.00;95286.59;5045562;28;24446;-75
2022/08/17 01:13:00;;;;;;;5.57;5.00;;;;;;;16.90;100.00;95293.91;5041092;28;24451;-75
2022/08/17 01:15:29;;;;;;;6.53;4.97;;;;;;;16.87;100.00;95286.38;5050522;28;24796;-75
2022/08/17 01:17:56;;;;;;;6.78;5.28;;;;;;;16.86;100.00;95296.97;5049710;28;24980;-75
2022/08/17 01:20:22;;;;;;;4.97;4.47;;;;;;;16.87;100.00;95296.84;5045794;28;24551;-75
2022/08/17 01:22:50;;;;;;;6.60;5.22;;;;;;;16.93;100.00;95298.03;5042135;28;24432;-75
2022/08/17 01:25:19;;;;;;;5.65;5.10;;;;;;;16.98;100.00;95306.25;5046928;28;24439;-74
2022/08/17 01:27:46;;;;;;;5.80;5.20;;;;;;;16.82;100.00;95304.28;5048787;28;24856;-75
2022/08/17 01:30:13;;;;;;;6.32;5.53;;;;;;;16.66;100.00;95304.91;5045776;28;24439;-75
2022/08/17 01:32:39;;;;;;;6.88;5.90;;;;;;;16.68;100.00;95305.56;5042475;28;24455;-75
2022/08/17 01:35:07;;;;;;;6.43;5.85;;;;;;;16.60;100.00;95299.41;5038672;28;24439;-74
2022/08/17 01:37:36;;;;;;;6.30;5.30;;;;;;;16.68;100.00;95297.72;5048013;28;24439;-76
2022/08/17 01:40:12;;;;;;;8.80;6.23;;;;;;;16.80;100.00;95305.44;5043387;28;25175;-74
2022/08/17 01:42:43;;;;;;;5.77;5.17;;;;;;;16.73;100.00;95301.72;5040833;28;24439;-75
2022/08/17 01:45:13;;;;;;;5.90;5.00;;;;;;;16.60;100.00;95308.06;5039338;28;24996;-75
2022/08/17 01:47:40;;;;;;;5.75;5.15;;;;;;;16.59;100.00;95310.84;5049109;28;24466;-75
2022/08/17 01:50:10;;;;;;;6.60;5.28;;;;;;;16.61;100.00;95307.13;5046765;28;24435;-75
2022/08/17 01:52:36;;;;;;;5.22;4.72;;;;;;;16.65;100.00;95310.28;5057618;28;24459;-75
2022/08/17 01:55:06;;;;;;;5.63;5.13;;;;;;;16.67;100.00;95313.56;5049813;28;25007;-75
2022/08/17 01:57:34;;;;;;;5.47;4.97;;;;;;;16.76;100.00;95314.50;5050124;28;24509;-75
2022/08/17 02:00:04;;;;;;;6.25;5.65;;;;;;;16.77;100.00;95316.19;5046027;28;24438;-75
2022/08/17 02:02:31;;;;;;;5.70;5.10;;;;;;;16.82;100.00;95311.31;5049236;28;24518;-75
2022/08/17 02:04:57;;;;;;;10.23;5.82;;;;;;;16.88;100.00;95310.75;5048556;28;24439;-75
2022/08/17 02:07:24;;;;;;;6.78;6.07;;;;;;;16.86;100.00;95307.44;5044624;28;24443;-75
2022/08/17 02:09:50;;;;;;;8.15;5.80;;;;;;;16.79;100.00;95298.53;5049207;28;24980;-75
2022/08/17 02:12:18;;;;;;;5.82;5.22;;;;;;;16.70;100.00;95306.25;5042161;28;24459;-75
2022/08/17 02:14:45;;;;;;;6.80;6.10;;;;;;;16.68;100.00;95312.59;5045534;28;24435;-75
2022/08/17 02:17:11;;;;;;;8.87;6.30;;;;;;;16.69;100.00;95319.47;5044771;28;25048;-75
2022/08/17 02:19:38;;;;;;;7.40;6.10;;;;;;;16.69;100.00;95316.88;5047051;28;24436;-75
2022/08/17 02:22:04;;;;;;;6.95;5.50;;;;;;;16.68;100.00;95317.81;5046145;28;25008;-75
2022/08/17 02:24:34;;;;;;;5.93;5.25;;;;;;;16.71;100.00;95304.47;5046064;28;24446;-75
2022/08/17 02:27:00;;;;;;;7.47;5.83;;;;;;;16.69;100.00;95306.41;5039355;28;24443;-75
2022/08/17 02:29:28;;;;;;;6.25;5.60;;;;;;;16.64;100.00;95301.59;5047537;28;24438;-75
2022/08/17 02:31:57;;;;;;;5.78;5.20;;;;;;;16.67;100.00;95300.50;5047210;28;24451;-75
2022/08/17 02:34:24;;;;;;;8.10;5.65;;;;;;;16.62;100.00;95293.09;5038970;28;24440;-75
2022/08/17 02:36:52;;;;;;;7.03;5.60;;;;;;;16.60;100.00;95300.25;5047464;28;24995;-75
2022/08/17 02:39:19;;;;;;;7.10;5.28;;;;;;;16.62;100.00;95300.94;5044775;28;24446;-75
2022/08/17 02:41:45;;;;;;;7.00;5.70;;;;;;;16.71;100.00;95307.06;5051355;28;25000;-75
2022/08/17 02:44:12;;;;;;;5.77;5.27;;;;;;;16.65;100.00;95311.09;5048654;28;24447;-74
2022/08/17 02:46:40;;;;;;;8.30;5.75;;;;;;;16.66;100.00;95304.09;5045924;28;24995;-75
2022/08/17 02:49:06;;;;;;;6.87;5.97;;;;;;;16.65;100.00;95302.44;5052004;28;24547;-75
2022/08/17 02:51:34;;;;;;;5.78;5.18;;;;;;;16.65;100.00;95305.88;5046312;28;24431;-75
2022/08/17 02:54:00;;;;;;;6.97;5.63;;;;;;;16.68;100.00;95302.13;5037596;28;24820;-75
2022/08/17 02:56:27;;;;;;;7.80;5.40;;;;;;;16.69;100.00;95298.56;5053146;28;24797;-74
2022/08/17 02:58:53;;;;;;;7.60;5.70;;;;;;;16.59;100.00;95309.06;5050953;28;24542;-75
2022/08/17 03:01:20;;;;;;;6.22;5.63;;;;;;;16.57;100.00;95308.38;5051461;28;24432;-75
2022/08/17 03:03:47;;;;;;;6.28;5.25;;;;;;;16.55;100.00;95315.53;5052858;28;24622;-75
2022/08/17 03:06:15;;;;;;;6.32;5.70;;;;;;;16.52;100.00;95309.78;5044284;28;24978;-75
2022/08/17 03:08:42;;;;;;;5.85;5.35;;;;;;;16.60;100.00;95312.50;5048849;28;25219;-75
2022/08/17 03:11:09;;;;;;;6.80;5.13;;;;;;;16.53;100.00;95327.09;5052602;28;24438;-74
2022/08/17 03:13:35;;;;;;;5.85;5.22;;;;;;;16.54;100.00;95329.59;5048193;28;25062;-75
2022/08/17 03:16:02;;;;;;;5.78;5.22;;;;;;;16.63;100.00;95344.41;5046445;28;24451;-75
2022/08/17 03:18:28;;;;;;;5.88;5.28;;;;;;;16.56;100.00;95339.88;5052447;28;24443;-75
2022/08/17 03:20:58;;;;;;;6.55;5.82;;;;;;;16.42;100.00;95349.00;5052055;28;24439;-75
2022/08/17 03:23:26;;;;;;;6.13;5.13;;;;;;;16.50;100.00;95345.69;5043367;28;24506;-75
2022/08/17 03:25:53;;;;;;;5.70;4.82;;;;;;;16.45;100.00;95349.56;5048216;28;24438;-75
2022/08/17 03:28:20;;;;;;;8.40;5.68;;;;;;;16.39;100.00;95355.38;5049226;28;24442;-75
2022/08/17 03:30:47;;;;;;;8.82;5.68;;;;;;;16.45;100.00;95351.34;5051802;28;24987;-75
2022/08/17 03:33:13;;;;;;;10.15;6.15;;;;;;;16.40;100.00;95351.78;5044879;28;24473;-75
2022/08/17 03:35:40;;;;;;;6.28;5.68;;;;;;;16.40;100.00;95350.97;5043084;28;24440;-75
2022/08/17 03:38:10;;;;;;;6.22;5.63;;;;;;;16.46;100.00;95337.28;5046416;28;24439;-75
2022/08/17 03:40:37;;;;;;;6.68;5.55;;;;;;;16.61;100.00;95333.28;5044071;28;24443;-74
2022/08/17 03:43:05;;;;;;;9.07;6.50;;;;;;;16.56;100.00;95334.66;5041310;28;24444;-74
2022/08/17 03:56:43;;;;;;;6.68;5.95;;;;;;;16.12;100.00;95343.03;5051656;28;24443;-74
2022/08/17 03:59:11;;;;;;;6.68;5.95;;;;;;;16.20;100.00;95334.50;5048387;28;25003;-74
2022/08/17 04:01:38;;;;;;;6.90;6.20;;;;;;;16.29;100.00;95338.88;5044031;28;24428;-74
2022/08/17 04:04:05;;;;;;;5.75;5.28;;;;;;;16.35;100.00;95340.94;5039963;28;24443;-74
2022/08/17 04:06:32;;;;;;;6.35;5.80;;;;;;;16.40;100.00;95338.72;5045288;28;24977;-74
2022/08/17 04:09:00;;;;;;;6.77;5.43;;;;;;;16.51;100.00;95332.47;5049250;28;24439;-74
2022/08/17 04:11:26;;;;;;;7.97;5.57;;;;;;;16.55;100.00;95336.47;5045311;28;24439;-74
2022/08/17 04:13:53;;;;;;;6.72;5.63;;;;;;;16.59;100.00;95335.19;5042624;28;24466;-74
2022/08/17 04:16:19;;;;;;;9.15;6.13;;;;;;;16.57;100.00;95342.34;5046838;28;24443;-74
2022/08/17 04:18:46;;;;;;;6.78;6.00;;;;;;;16.53;100.00;95343.59;5049976;28;24793;-74
2022/08/17 04:21:12;;;;;;;6.38;5.70;;;;;;;16.33;100.00;95348.09;5046235;28;24459;-74
2022/08/17 04:23:38;;;;;;;6.97;6.10;;;;;;;16.35;100.00;95354.00;5050356;28;24466;-74
2022/08/17 04:26:06;;;;;;;6.80;5.57;;;;;;;16.48;100.00;95356.28;5041321;28;24436;-74
2022/08/17 04:28:33;;;;;;;5.82;5.22;;;;;;;16.56;100.00;95358.19;5042315;28;24446;-74
2022/08/17 04:30:59;;;;;;;5.93;5.33;;;;;;;16.57;100.00;95360.66;5049251;28;24523;-74
2022/08/17 04:33:28;;;;;;;5.65;5.07;;;;;;;16.61;100.00;95359.41;5049730;28;24463;-74
2022/08/17 04:35:57;;;;;;;6.72;5.88;;;;;;;16.43;100.00;95368.97;5050599;28;24434;-74
2022/08/17 04:38:26;;;;;;;6.70;5.95;;;;;;;16.34;100.00;95364.56;5050350;28;24436;-74
2022/08/17 04:43:40;;;;;;;5.82;5.20;;;;;;;16.95;100.00;95369.38;5050309;28;24443;-74
2022/08/17 04:46:09;;;;;;;6.22;5.53;;;;;;;16.76;100.00;95377.25;5050591;28;24438;-74
2022/08/17 04:48:38;;;;;;;6.22;5.30;;;;;;;16.62;100.00;95376.75;5050207;28;24880;-74
2022/08/17 04:51:08;;;;;;;6.40;5.80;;;;;;;16.82;100.00;95372.28;5048904;28;24446;-74
2022/08/17 04:53:34;;;;;;;6.60;5.97;;;;;;;16.80;100.00;95362.97;5042314;28;24466;-74
2022/08/17 04:56:01;;;;;;;7.37;6.47;;;;;;;16.95;100.00;95368.53;5050189;28;24434;-74
2022/08/17 04:58:27;;;;;;;6.88;6.13;;;;;;;16.62;100.00;95366.28;5050648;28;24439;-74
2022/08/17 05:00:55;;;;;;;6.90;6.30;;;;;;;16.58;100.00;95353.66;5050096;28;24431;-74
2022/08/17 05:03:22;;;;;;;7.05;6.28;;;;;;;16.69;100.00;95358.72;5040461;28;24447;-74
2022/08/17 05:05:48;;;;;;;6.88;6.15;;;;;;;16.68;100.00;95357.03;5047477;28;24435;-74
2022/08/17 05:08:17;;;;;;;7.60;5.95;;;;;;;16.89;100.00;95352.44;5050172;28;24528;-75
2022/08/17 05:10:44;;;;;;;7.25;6.40;;;;;;;16.95;100.00;95355.47;5050158;28;24435;-74
2022/08/17 05:13:14;;;;;;;8.30;6.18;;;;;;;16.99;100.00;95354.19;5047195;28;24466;-74
2022/08/17 05:15:42;;;;;;;9.15;6.15;;;;;;;17.07;100.00;95359.53;5050171;28;24805;-74
2022/08/17 05:18:11;;;;;;;10.38;5.97;;;;;;;17.10;100.00;95357.44;5043625;28;24432;-75
2022/08/17 05:20:39;;;;;;;6.60;5.90;;;;;;;17.30;100.00;95355.50;5040234;28;24454;-74
2022/08/17 05:23:07;;;;;;;6.75;6.10;;;;;;;17.36;100.00;95373.25;5045227;28;25073;-74
2022/08/17 05:25:37;;;;;;;6.20;5.60;;;;;;;17.32;100.00;95365.84;5047386;28;24431;-74
2022/08/17 05:28:04;;;;;;;5.95;5.22;;;;;;;17.19;100.00;95366.19;5049134;28;24975;-74
2022/08/17 05:30:31;;;;;;;7.20;5.53;;;;;;;17.38;100.00;95373.91;5046290;28;24988;-74
2022/08/17 05:33:00;;;;;;;6.20;5.60;;;;;;;17.36;100.00;95361.97;5047298;28;24875;-74
2022/08/17 05:35:31;;;;;;;6.20;5.60;;;;;;;17.65;100.00;95364.38;5049316;28;24813;-74
2022/08/17 05:37:58;;;;;;;6.97;5.20;;;;;;;17.77;100.00;95363.22;5049780;28;24443;-74
2022/08/17 05:40:25;;;;;;;7.43;5.57;;;;;;;17.98;100.00;95365.50;5049067;28;24960;-74
2022/08/17 05:43:03;;;;;;;7.85;6.03;;;;;;;18.17;100.00;95364.53;5046586;28;24482;-75
2022/08/17 05:45:31;;;;;;;7.93;6.00;;;;;;;18.28;100.00;95363.41;5049834;28;24427;-74
2022/08/17 05:47:58;;;;;;;14.25;7.45;;;;;;;18.62;100.00;95359.06;5048679;28;24439;-74
2022/08/17 05:50:31;;;;;;;17.48;7.97;;;;;;;18.72;100.00;95366.03;5047591;28;25039;-74
2022/08/17 05:53:05;;;;;;;15.97;7.67;;;;;;;18.56;100.00;95372.78;5045264;28;24572;-74
2022/08/17 05:55:40;;;;;;;9.13;6.35;;;;;;;18.51;100.00;95379.50;5046231;28;24797;-74
2022/08/17 05:58:16;;;;;;;9.30;6.32;;;;;;;18.35;100.00;95385.44;5043174;28;24511;-75
2022/08/17 06:00:49;;;;;;;7.53;5.40;;;;;;;18.26;100.00;95392.44;5048857;28;24431;-74
2022/08/17 06:03:34;;;;;;;9.27;5.43;;;;;;;18.19;100.00;95399.25;5041929;28;24442;-77
2022/08/17 06:06:16;;;;;;;9.73;5.35;;;;;;;18.07;100.00;95397.84;5047269;28;24446;-74
2022/08/17 06:08:54;;;;;;;7.43;5.30;;;;;;;18.00;100.00;95397.63;5044648;28;24435;-74
2022/08/17 06:11:29;;;;;;;6.45;5.85;;;;;;;17.95;100.00;95399.88;5042766;28;24435;-74
2022/08/17 06:14:09;;;;;;;7.45;5.50;;;;;;;17.98;100.00;95411.84;5044790;28;24455;-74
2022/08/17 06:16:39;;;;;;;7.83;6.07;;;;;;;18.01;100.00;95406.31;5049521;28;24489;-69
2022/08/17 06:19:14;;;;;;;5.78;5.18;;;;;;;18.08;100.00;95410.78;5047463;28;24829;-74
2022/08/17 06:21:45;;;;;;;5.75;5.15;;;;;;;18.20;100.00;95407.94;5040014;28;24965;-74
2022/08/17 06:24:26;;;;;;;7.10;5.00;;;;;;;18.30;100.00;95409.50;5040076;28;24439;-74
2022/08/17 06:26:55;;;;;;;10.95;5.28;;;;;;;18.38;100.00;95411.34;5045268;28;24434;-72
2022/08/17 06:29:35;;;;;;;7.53;5.68;;;;;;;18.42;99.32;95402.19;5046790;28;24435;-73
2022/08/17 06:32:03;;;;;;;6.47;5.35;;;;;;;18.42;99.70;95423.16;5047198;28;24817;-73
2022/08/17 06:34:29;;;;;;;7.20;5.70;;;;;;;18.47;99.78;95431.44;5043521;28;24462;-73
2022/08/17 06:37:09;;;;;;;6.38;5.78;;;;;;;18.36;100.00;95411.50;5047279;28;24968;-73
2022/08/17 06:39:47;;;;;;;7.13;5.93;;;;;;;18.20;100.00;95415.78;5045010;28;24442;-73
2022/08/17 06:42:25;;;;;;;8.03;5.60;;;;;;;18.33;100.00;95424.91;5042514;28;24988;-73
2022/08/17 06:45:02;;;;;;;6.93;6.13;;;;;;;18.41;100.00;95426.78;5046062;28;24542;-73
2022/08/17 06:47:34;;;;;;;6.93;5.68;;;;;;;18.45;100.00;95427.28;5041424;28;24446;-73
2022/08/17 06:50:08;;;;;;;5.47;4.97;;;;;;;18.46;100.00;95414.03;5045002;28;24435;-73
2022/08/17 06:52:44;;;;;;;7.20;5.05;;;;;;;18.47;100.00;95405.19;5044687;28;24438;-73
2022/08/17 06:55:14;;;;;;;5.72;4.78;;;;;;;18.40;100.00;95398.91;5041038;28;24483;-74
2022/08/17 06:57:45;;;;;;;5.63;4.93;;;;;;;18.47;100.00;95397.34;5044816;28;24439;-73
2022/08/17 07:00:16;;;;;;;5.30;4.80;;;;;;;18.78;100.00;95399.50;5037259;28;24473;-74
2022/08/17 07:02:54;;;;;;;7.80;5.70;;;;;;;19.07;100.00;95386.03;5044913;28;24438;-73
2022/08/17 07:05:23;;;;;;;6.37;5.23;;;;;;;19.36;100.00;95387.47;5047988;28;24489;-73
2022/08/17 07:08:03;;;;;;;6.13;5.15;;;;;;;19.38;100.00;95388.13;5041918;28;24799;-73
2022/08/17 07:10:36;;;;;;;10.98;5.60;;;;;;;19.86;100.00;95397.13;5043027;28;24991;-74
2022/08/17 07:13:28;;;;;;;8.88;5.35;;;;;;;19.86;100.00;95407.63;5045837;28;24435;-74
2022/08/17 07:16:03;;;;;;;7.20;4.67;;;;;;;19.98;96.35;95415.03;5040180;28;24446;-74
2022/08/17 07:18:31;;;;;;;6.28;4.78;;;;;;;20.09;94.77;95415.69;5047617;28;24431;-74
2022/08/17 07:21:08;;;;;;;6.60;4.53;;;;;;;20.05;92.91;95415.19;5042609;28;25023;-75
2022/08/17 07:23:46;;;;;;;5.22;4.70;;;;;;;20.16;93.56;95433.28;5048795;28;24442;-75
2022/08/17 07:26:13;;;;;;;6.63;4.35;;;;;;;20.04;92.77;95432.78;5042143;28;24438;-74
2022/08/17 07:28:39;;;;;;;9.38;5.45;;;;;;;20.03;91.72;95428.50;5046603;28;24517;-72
2022/08/17 07:31:07;;;;;;;10.10;5.45;;;;;;;19.95;90.71;95438.19;5051259;28;24439;-74
2022/08/17 07:33:35;;;;;;;5.47;4.13;;;;;;;19.88;91.87;95443.28;5045063;28;24840;-74
2022/08/17 07:36:02;;;;;;;6.88;4.97;;;;;;;19.89;92.13;95449.34;5049298;28;25078;-74
2022/08/17 07:38:30;;;;;;;6.75;5.10;;;;;;;19.88;90.75;95445.09;5050324;28;24466;-75
2022/08/17 07:41:04;;;;;;;9.02;5.20;;;;;;;19.85;90.95;95446.22;5050477;28;24439;-74
2022/08/17 07:43:33;;;;;;;6.07;4.88;;;;;;;19.77;92.74;95446.22;5052310;28;24973;-75
2022/08/17 07:48:58;;;;;;;6.93;4.60;;;;;;;19.85;92.21;95448.84;5049356;28;24536;-74
2022/08/17 07:51:31;;;;;;;6.13;4.68;;;;;;;19.75;91.36;95448.16;5040433;28;24994;-75
2022/08/17 07:54:01;;;;;;;6.25;4.53;;;;;;;19.74;92.49;95449.16;5047689;28;24463;-75
2022/08/17 07:56:39;;;;;;;8.13;4.32;;;;;;;19.80;92.80;95453.75;5043740;28;24438;-73
2022/08/17 07:59:12;;;;;;;8.13;4.70;;;;;;;19.76;97.43;95455.06;5050028;28;24517;-74
2022/08/17 08:01:39;;;;;;;6.80;4.23;;;;;;;19.80;96.66;95461.63;5050933;28;24447;-75
2022/08/17 08:04:27;;;;;;;5.32;4.60;;;;;;;19.89;96.09;95442.28;5043864;28;25001;-74
2022/08/17 08:06:58;;;;;;;7.47;4.43;;;;;;;19.97;94.61;95444.94;5047872;28;24442;-74
2022/08/17 08:09:34;;;;;;;5.70;4.75;;;;;;;20.22;94.96;95456.31;5050012;28;24447;-73
2022/08/17 08:12:26;;;;;;;7.13;4.43;;;;;;;20.26;96.92;95457.63;5048344;28;24436;-74
2022/08/17 08:14:55;;;;;;;6.35;4.63;;;;;;;20.33;99.88;95463.06;5049244;28;25077;-74
2022/08/17 08:17:25;;;;;;;10.10;4.60;;;;;;;20.22;99.96;95466.00;5051270;28;24438;-74
2022/08/17 08:19:52;;;;;;;6.07;5.03;;;;;;;20.14;98.65;95482.59;5043460;28;24896;-73
2022/08/17 08:22:41;;;;;;;6.70;5.00;;;;;;;19.96;100.00;95474.84;5050726;28;24435;-73
2022/08/17 08:25:21;;;;;;;7.63;5.15;;;;;;;19.72;100.00;95478.19;5042867;28;24903;-74
2022/08/17 08:28:05;;;;;;;6.47;5.35;;;;;;;19.57;100.00;95491.09;5046761;28;24446;-73
2022/08/17 08:30:36;;;;;;;7.32;5.60;;;;;;;19.33;100.00;95498.88;5045446;28;24972;-74
2022/08/17 08:33:25;;;;;;;8.55;5.70;;;;;;;19.24;100.00;95520.81;5044671;28;24451;-74
2022/08/17 08:35:57;;;;;;;9.63;5.83;;;;;;;19.26;100.00;95529.38;5042882;28;24521;-75
2022/08/17 08:38:34;;;;;;;6.57;5.43;;;;;;;19.21;100.00;95518.53;5046362;28;24435;-75
2022/08/17 08:41:25;;;;;;;12.65;6.00;;;;;;;19.17;100.00;95504.88;5042028;28;24530;-76
2022/08/17 08:44:04;;;;;;;9.25;6.40;;;;;;;18.91;100.00;95511.91;5047081;28;24530;-75
2022/08/17 08:46:40;;;;;;;11.32;6.38;;;;;;;19.38;100.00;95493.16;5046772;28;24973;-75
2022/08/17 08:49:31;;;;;;;9.38;6.40;;;;;;;19.41;100.00;95491.03;5050968;28;24438;-74
2022/08/17 08:52:00;;;;;;;7.35;5.65;;;;;;;19.15;100.00;95506.00;5042717;28;24533;-74
2022/08/17 08:54:37;;;;;;;13.38;6.00;;;;;;;18.97;100.00;95500.81;5050106;28;24463;-73
2022/08/17 08:57:15;;;;;;;9.63;6.57;;;;;;;18.83;100.00;95487.25;5046761;28;24796;-74
2022/08/17 08:59:58;;;;;;;8.73;6.55;;;;;;;18.94;100.00;95483.56;5052664;28;25034;-72
2022/08/17 09:02:52;;;;;;;10.55;5.88;;;;;;;18.88;100.00;95488.63;5045277;28;24449;-72
2022/08/17 09:05:32;;;;;;;11.00;5.80;;;;;;;18.88;100.00;95499.94;5039058;28;24883;-73
2022/08/17 09:08:09;;;;;;;6.70;6.00;;;;;;;18.89;100.00;95501.56;5048091;28;24435;-74
2022/08/17 09:10:48;;;;;;;9.50;5.75;;;;;;;18.92;100.00;95514.41;5045169;28;24445;-72
2022/08/17 09:13:24;;;;;;;7.45;6.22;;;;;;;18.92;100.00;95517.03;5046761;28;24859;-74
2022/08/17 09:15:57;;;;;;;8.18;6.78;;;;;;;18.86;100.00;95525.50;5050317;28;24478;-74
2022/08/17 09:18:28;;;;;;;9.13;6.93;;;;;;;18.64;100.00;95521.53;5043049;28;24454;-73
2022/08/17 09:20:58;;;;;;;9.05;6.88;;;;;;;18.74;100.00;95529.34;5047497;28;24435;-73
2022/08/17 09:23:33;;;;;;;8.52;6.97;;;;;;;18.81;100.00;95530.38;5050255;28;24440;-74
2022/08/17 09:26:06;;;;;;;9.30;6.90;;;;;;;18.72;100.00;95533.91;5049679;28;25007;-74
2022/08/17 09:28:35;;;;;;;7.78;6.97;;;;;;;18.70;100.00;95535.84;5051410;28;24443;-72
2022/08/17 09:31:08;;;;;;;7.75;6.93;;;;;;;18.69;100.00;95549.91;5047234;28;25058;-73
2022/08/17 09:33:39;;;;;;;8.45;7.30;;;;;;;18.70;100.00;95562.06;5049724;28;24448;-74
2022/08/17 09:36:11;;;;;;;9.65;6.60;;;;;;;18.82;100.00;95550.41;5048709;28;24434;-73
2022/08/17 09:38:44;;;;;;;9.77;7.68;;;;;;;19.21;100.00;95545.59;5049877;28;24442;-71
2022/08/17 09:41:16;;;;;;;10.10;7.90;;;;;;;19.67;100.00;95545.34;5042728;28;24454;-73
2022/08/17 09:43:53;;;;;;;13.70;7.97;;;;;;;19.71;100.00;95526.50;5039820;28;24852;-74
2022/08/17 09:46:28;;;;;;;12.90;9.40;;;;;;;19.16;100.00;95512.88;5041056;28;24432;-74
2022/08/17 09:49:03;;;;;;;18.30;10.50;;;;;;;19.02;100.00;95493.28;5047575;28;24437;-73
2022/08/17 09:51:33;;;;;;;13.50;9.82;;;;;;;18.10;100.00;95502.38;5040403;28;24521;-74
2022/08/17 09:54:00;;;;;;;7.68;4.90;;;;;;;18.27;100.00;95522.50;5047480;28;24442;-73
2022/08/17 09:56:40;;;;;;;7.13;4.90;;;;;;;18.78;100.00;95507.06;5050009;28;24443;-73
2022/08/17 09:59:26;;;;;;;5.43;4.88;;;;;;;18.72;100.00;95510.28;5037121;28;24467;-72
2022/08/17 10:01:59;;;;;;;7.35;5.70;;;;;;;18.70;100.00;95501.75;5044802;28;25021;-73
2022/08/17 10:04:41;;;;;;;10.05;6.35;;;;;;;19.10;100.00;95501.22;5049965;28;24980;-73
2022/08/17 10:07:18;;;;;;;7.97;6.38;;;;;;;18.93;100.00;95496.84;5047784;28;24431;-74
2022/08/17 10:09:57;;;;;;;10.90;6.35;;;;;;;18.68;100.00;95509.75;5047102;28;25067;-71
2022/08/17 10:12:33;;;;;;;7.07;6.40;;;;;;;18.60;100.00;95521.00;5051079;28;24446;-73
2022/08/17 10:15:12;;;;;;;7.70;6.63;;;;;;;18.51;100.00;95526.34;5049023;28;25007;-73
2022/08/17 10:17:54;;;;;;;10.45;7.50;;;;;;;18.43;100.00;95534.97;5051889;28;24447;-73
2022/08/17 10:20:29;;;;;;;8.50;6.55;;;;;;;18.45;100.00;95551.34;5044745;28;24474;-74
2022/08/17 10:28:40;;;;;;;7.65;6.32;;;;;;;18.18;100.00;95577.66;5043726;28;24459;-75
2022/08/17 10:31:10;;;;;;;8.82;6.60;;;;;;;18.25;100.00;95599.69;5046531;28;24459;-74
2022/08/17 10:33:50;;;;;;;8.73;6.70;;;;;;;18.40;100.00;95594.75;5035445;28;25015;-74
2022/08/17 10:36:24;;;;;;;9.50;7.78;;;;;;;18.48;100.00;95593.03;5035233;28;24447;-73
2022/08/17 10:39:01;;;;;;;10.00;7.95;;;;;;;18.51;100.00;95594.53;5045383;28;24435;-73
2022/08/17 10:41:35;;;;;;;8.40;7.57;;;;;;;18.68;100.00;95601.56;5044708;28;24450;-74
2022/08/17 10:44:08;;;;;;;9.63;7.43;;;;;;;18.69;100.00;95591.88;5048753;28;24836;-74
2022/08/17 10:46:51;;;;;;;10.07;5.97;;;;;;;18.70;100.00;95598.81;5049900;28;24427;-74
2022/08/17 10:49:33;;;;;;;6.25;5.55;;;;;;;18.80;100.00;95605.66;5040012;28;25339;-73
2022/08/17 10:52:02;;;;;;;6.70;5.68;;;;;;;19.01;100.00;95586.13;5043598;28;24520;-73
2022/08/17 10:54:40;;;;;;;7.45;6.18;;;;;;;19.63;100.00;95580.81;5039808;28;24489;-73
2022/08/17 10:57:35;;;;;;;8.55;6.50;;;;;;;19.58;100.00;95571.56;5046197;28;24435;-72
2022/08/17 11:00:07;;;;;;;8.13;6.57;;;;;;;19.40;100.00;95575.25;5047925;28;24443;-72
2022/08/17 11:02:41;;;;;;;7.22;6.25;;;;;;;19.39;100.00;95584.06;5046729;28;24439;-73
2022/08/17 11:05:21;;;;;;;8.63;5.50;;;;;;;19.42;100.00;95589.03;5040071;28;24432;-72
2022/08/17 11:08:06;;;;;;;6.10;5.20;;;;;;;19.39;100.00;95595.41;5050190;28;24441;-74
2022/08/17 11:10:55;;;;;;;6.55;5.95;;;;;;;19.45;100.00;95594.78;5047745;28;24435;-73
2022/08/17 11:13:34;;;;;;;5.78;5.18;;;;;;;19.47;100.00;95595.47;5048590;28;24436;-72
2022/08/17 11:16:14;;;;;;;6.22;5.63;;;;;;;19.53;100.00;95586.94;5046083;28;24564;-73
2022/08/17 11:19:07;;;;;;;7.65;5.75;;;;;;;19.52;100.00;95581.88;5052014;28;24449;-72
2022/08/17 11:22:06;;;;;;;6.90;6.20;;;;;;;19.68;100.00;95595.09;5036226;28;25015;-72
2022/08/17 11:24:36;;;;;;;9.45;5.63;;;;;;;19.82;100.00;95596.34;5039710;28;25332;-72
2022/08/17 11:27:12;;;;;;;8.23;6.10;;;;;;;19.84;100.00;95591.75;5045740;28;24447;-71
2022/08/17 11:29:49;;;;;;;6.43;5.83;;;;;;;19.86;100.00;95607.34;5041909;28;24529;-72
2022/08/17 11:32:39;;;;;;;6.15;5.55;;;;;;;19.84;100.00;95610.16;5045565;28;24793;-72
2022/08/17 11:35:33;;;;;;;8.15;6.65;;;;;;;19.88;100.00;95600.16;5044553;28;24467;-72
2022/08/17 11:38:15;;;;;;;7.22;6.50;;;;;;;19.99;100.00;95603.31;5044540;28;24542;-73
2022/08/17 11:40:58;;;;;;;8.52;6.40;;;;;;;20.06;100.00;95585.94;5048896;28;24447;-73
2022/08/17 11:44:04;;;;;;;7.00;6.23;;;;;;;19.97;100.00;95580.78;5045906;28;24844;-72
2022/08/17 11:52:40;;;;;;;6.55;5.55;;;;;;;20.20;100.00;95573.13;5045448;28;24552;-71
2022/08/17 11:55:11;;;;;;;7.18;5.72;;;;;;;20.30;100.00;95563.31;5051843;28;24455;-71
2022/08/17 11:58:05;;;;;;;6.40;5.00;;;;;;;20.17;100.00;95553.25;5052261;28;24833;-71
2022/08/17 12:00:50;;;;;;;5.90;4.90;;;;;;;20.15;100.00;95557.03;5052344;28;24806;-71
2022/08/17 12:03:25;;;;;;;8.63;5.20;;;;;;;20.17;100.00;95539.28;5047871;28;25049;-71
2022/08/17 12:06:02;;;;;;;8.65;5.38;;;;;;;20.79;100.00;95522.09;5044463;28;24999;-71
2022/08/17 12:08:31;;;;;;;6.85;5.53;;;;;;;20.47;100.00;95515.00;5041551;28;24442;-72
2022/08/17 12:11:06;;;;;;;5.60;5.10;;;;;;;20.36;100.00;95533.75;5048429;28;25220;-72
2022/08/17 12:13:41;;;;;;;7.53;5.32;;;;;;;20.62;100.00;95523.09;5045201;28;24885;-71
2022/08/17 12:16:13;;;;;;;6.45;4.72;;;;;;;20.65;100.00;95524.56;5044846;28;24454;-72